Time;durP1;ratioP1;P1;durP2;ratioP2;P2;SDS_P1;SDS_P2;PMS_P1;PMS_P2;Temp;Humidity;BMP_temperature;BMP_pressure;BME280_temperature;BME280_humidity;BME280_pressure;Samples;Min_cycle;Max_cycle;Signal;HPM_P1;HPM_P2
2023/01/04 00:04:15;;;;;;;157.75;93.60;;;;;;;2.30;91.38;98627.09;10410556;28;20072;-54
2023/01/04 00:09:14;;;;;;;156.23;89.70;;;;;;;2.28;91.86;98630.41;10401022;28;20036;-55
2023/01/04 00:14:16;;;;;;;162.02;94.30;;;;;;;2.28;91.65;98638.97;10381442;28;20063;-55
2023/01/04 00:19:14;;;;;;;147.70;86.43;;;;;;;2.18;91.83;98644.44;10399662;28;20076;-54
2023/01/04 00:24:14;;;;;;;128.18;75.35;;;;;;;2.17;91.91;98638.44;10386431;28;20115;-55
2023/01/04 00:29:13;;;;;;;;;;;;;;;2.10;92.04;98649.22;10408775;28;20467;-55
2023/01/04 00:34:14;;;;;;;117.95;64.85;;;;;;;2.07;91.78;98656.75;10376153;28;20272;-54
2023/01/04 00:39:15;;;;;;;95.25;55.95;;;;;;;2.05;92.10;98654.94;10388051;28;20508;-54
2023/01/04 00:44:14;;;;;;;103.15;59.22;;;;;;;2.04;91.97;98658.28;10388562;28;20053;-55
2023/01/04 00:49:13;;;;;;;90.38;53.03;;;;;;;1.97;92.12;98657.13;10395527;28;20072;-54
2023/01/04 00:54:14;;;;;;;96.43;56.72;;;;;;;1.91;92.11;98647.47;10384514;28;20044;-55
2023/01/04 00:59:15;;;;;;;122.78;72.07;;;;;;;1.91;92.39;98651.72;10388078;28;20052;-55
2023/01/04 01:04:17;;;;;;;109.75;66.25;;;;;;;1.80;92.50;98658.88;10406014;28;20064;-54
2023/01/04 01:09:17;;;;;;;143.38;91.50;;;;;;;1.73;92.60;98677.31;10401074;28;20067;-54
2023/01/04 01:14:19;;;;;;;150.13;91.50;;;;;;;1.71;92.33;98673.78;10400850;28;20079;-55
2023/01/04 01:19:18;;;;;;;142.23;89.38;;;;;;;1.66;92.49;98680.38;10385924;28;20947;-55
2023/01/04 01:24:18;;;;;;;147.27;90.80;;;;;;;1.61;92.14;98675.03;10404693;28;20825;-54
2023/01/04 01:29:17;;;;;;;135.27;81.80;;;;;;;1.59;92.29;98668.06;10428398;28;20071;-55
2023/01/04 01:34:16;;;;;;;128.48;80.30;;;;;;;1.54;92.40;98672.97;10408509;28;20075;-54
2023/01/04 01:39:16;;;;;;;140.70;82.53;;;;;;;1.50;92.25;98664.25;10398565;28;20033;-55
2023/01/04 01:44:45;;;;;;;138.07;81.15;;;;;;;1.49;92.28;98657.38;10399770;28;20068;-54
2023/01/04 01:49:46;;;;;;;132.10;79.23;;;;;;;1.45;92.58;98659.72;10404381;28;20136;-55
2023/01/04 01:54:53;;;;;;;123.60;72.70;;;;;;;1.49;92.86;98656.53;10412466;28;20350;-54
2023/01/04 01:59:55;;;;;;;145.07;86.18;;;;;;;1.40;92.98;98649.25;10400189;28;20059;-53
2023/01/04 02:04:54;;;;;;;248.55;145.60;;;;;;;1.33;93.31;98650.63;10407047;28;20049;-55
2023/01/04 02:09:55;;;;;;;204.30;117.90;;;;;;;1.38;93.17;98642.31;10397785;28;20076;-54
2023/01/04 02:14:53;;;;;;;154.27;90.95;;;;;;;1.40;93.07;98656.06;10402206;28;20064;-54
2023/01/04 02:20:02;;;;;;;142.18;84.28;;;;;;;1.36;93.34;98649.03;10401371;28;20040;-53
2023/01/04 02:25:20;;;;;;;158.03;94.43;;;;;;;1.31;93.08;98647.13;10403736;28;20056;-55
2023/01/04 02:30:37;;;;;;;256.80;143.88;;;;;;;1.22;93.46;98653.47;10396832;28;20502;-55
2023/01/04 02:35:58;;;;;;;195.80;109.45;;;;;;;1.14;93.24;98665.88;10398905;28;20555;-55
2023/01/04 02:41:16;;;;;;;89.28;56.45;;;;;;;0.92;93.42;98665.56;10414724;28;20060;-54
2023/01/04 02:46:26;;;;;;;79.32;48.83;;;;;;;0.81;93.20;98645.44;10378061;28;20487;-54
2023/01/04 02:51:32;;;;;;;84.80;49.90;;;;;;;0.86;93.34;98654.22;10413444;28;20060;-55
2023/01/04 02:57:01;;;;;;;81.93;50.95;;;;;;;0.81;93.24;98667.56;10417377;28;20064;-54
2023/01/04 03:08:30;;;;;;;74.93;48.65;;;;;;;0.69;93.40;98657.59;10360224;28;20072;-54
2023/01/04 03:13:38;;;;;;;118.07;70.80;;;;;;;0.69;93.49;98661.03;10402733;28;20060;-54
2023/01/04 03:18:42;;;;;;;130.38;77.15;;;;;;;0.69;93.40;98657.59;10390616;28;20459;-54
2023/01/04 03:50:54;;;;;;;96.60;54.42;;;;;;;0.62;93.59;98674.28;10378431;28;20072;-55
2023/01/04 03:55:57;;;;;;;88.70;50.47;;;;;;;0.63;93.55;98678.56;10374578;28;20060;-54
2023/01/04 04:01:02;;;;;;;86.32;48.90;;;;;;;0.60;93.61;98675.00;10403817;28;20045;-54
2023/01/04 04:11:30;;;;;;;104.95;63.10;;;;;;;0.61;93.84;98664.84;10376669;28;20076;-53
2023/01/04 04:16:29;;;;;;;117.80;65.88;;;;;;;0.53;94.04;98676.34;10373038;28;20071;-54
2023/01/04 04:21:28;;;;;;;136.02;80.05;;;;;;;0.45;94.12;98687.81;10378530;28;20055;-54
2023/01/04 04:26:27;;;;;;;140.32;80.57;;;;;;;0.40;93.88;98684.13;10408171;28;20840;-53
2023/01/04 04:31:26;;;;;;;134.10;81.10;;;;;;;0.35;94.08;98689.00;10399197;28;20043;-53
2023/01/04 04:36:24;;;;;;;125.28;73.72;;;;;;;0.34;94.02;98692.34;10412951;28;20040;-54
2023/01/04 04:41:40;;;;;;;142.55;83.72;;;;;;;0.36;94.11;98702.63;10411916;28;20037;-54
2023/01/04 04:46:39;;;;;;;137.32;80.38;;;;;;;0.37;94.08;98701.84;10410823;28;20075;-53
2023/01/04 04:51:39;;;;;;;116.85;72.15;;;;;;;0.27;94.25;98714.09;10376040;28;20496;-53
2023/01/04 04:56:38;;;;;;;104.93;60.10;;;;;;;0.24;94.20;98706.28;10404439;28;20060;-52
2023/01/04 05:01:37;;;;;;;82.57;49.38;;;;;;;0.22;93.93;98714.66;10412589;28;20071;-53
2023/01/04 05:06:36;;;;;;;77.93;47.53;;;;;;;0.05;93.76;98706.97;10382004;28;20112;-55
2023/01/04 05:16:52;;;;;;;99.38;59.03;;;;;;;-0.43;94.45;98736.53;10405595;28;20075;-52
2023/01/04 05:21:51;;;;;;;91.47;53.50;;;;;;;-0.55;94.72;98740.06;10412352;28;20052;-55
2023/01/04 05:26:50;;;;;;;91.13;49.72;;;;;;;-0.54;95.34;98740.13;10381778;28;20447;-54
2023/01/04 05:31:49;;;;;;;101.03;53.45;;;;;;;-0.43;95.22;98736.53;10398124;28;20124;-53
2023/01/04 05:36:48;;;;;;;103.15;54.88;;;;;;;-0.36;94.65;98750.53;10402116;28;20021;-54
2023/01/04 05:47:04;;;;;;;100.07;58.83;;;;;;;-0.21;94.90;98753.06;10406407;28;20061;-53
2023/01/04 05:52:03;;;;;;;120.22;68.63;;;;;;;-0.13;94.70;98759.50;10398227;28;20029;-53
2023/01/04 05:57:02;;;;;;;217.90;118.82;;;;;;;-0.25;95.15;98766.41;10388762;28;20505;-54
2023/01/04 06:02:01;;;;;;;144.07;74.15;;;;;;;-0.48;95.34;98777.88;10405520;28;20062;-54
2023/01/04 06:07:00;;;;;;;116.85;65.40;;;;;;;-0.62;95.49;98775.38;10429344;28;20822;-52
2023/01/04 06:11:59;;;;;;;103.43;52.13;;;;;;;-0.54;95.42;98778.38;10440136;28;20522;-53
2023/01/04 06:16:58;;;;;;;98.95;55.20;;;;;;;-0.52;95.65;98781.00;10402085;28;20025;-55
2023/01/04 06:21:57;;;;;;;143.95;77.15;;;;;;;-0.43;95.69;98782.44;10401893;28;20079;-54
2023/01/04 06:26:56;;;;;;;138.60;72.45;;;;;;;-0.45;95.58;98789.09;10416182;28;20051;-54
2023/01/04 06:31:55;;;;;;;162.65;77.50;;;;;;;-0.45;95.92;98795.88;10418216;28;20039;-55
2023/01/04 06:36:54;;;;;;;155.45;79.20;;;;;;;-0.40;95.60;98800.44;10396841;28;20067;-53
2023/01/04 06:41:53;;;;;;;265.13;123.55;;;;;;;-0.37;95.98;98808.31;10424924;28;20035;-53
2023/01/04 06:46:52;;;;;;;239.57;115.70;;;;;;;-0.29;95.84;98818.94;10399902;28;20068;-54
2023/01/04 06:51:51;;;;;;;208.63;107.05;;;;;;;-0.13;95.51;98813.06;10416417;28;20020;-53
2023/01/04 06:56:50;;;;;;;209.52;106.63;;;;;;;0.05;95.25;98803.94;10394475;28;20032;-54
2023/01/04 07:01:49;;;;;;;217.00;109.47;;;;;;;0.19;95.37;98819.13;10375245;28;20563;-53
2023/01/04 07:06:48;;;;;;;239.63;130.50;;;;;;;0.25;95.16;98815.25;10385094;28;20886;-53
2023/01/04 07:11:47;;;;;;;224.90;128.55;;;;;;;0.32;95.43;98815.59;10373713;28;20648;-54
2023/01/04 07:16:46;;;;;;;235.55;128.52;;;;;;;0.45;96.00;98836.81;10382801;28;20518;-53
2023/01/04 07:21:45;;;;;;;236.25;125.47;;;;;;;0.58;95.43;98828.16;10402624;28;20052;-52
2023/01/04 07:26:44;;;;;;;250.82;130.55;;;;;;;0.74;95.37;98837.53;10412748;28;20498;-51
2023/01/04 07:31:46;;;;;;;268.38;139.70;;;;;;;0.92;95.14;98847.91;10397771;28;20147;-53
2023/01/04 07:36:46;;;;;;;307.02;153.85;;;;;;;1.05;94.99;98841.75;10411086;28;20131;-53
2023/01/04 07:41:46;;;;;;;273.52;150.23;;;;;;;1.16;95.11;98845.78;10376554;28;20061;-53
2023/01/04 07:46:46;;;;;;;213.43;119.60;;;;;;;1.18;95.20;98835.63;10399387;28;20847;-53
2023/01/04 07:51:46;;;;;;;209.10;122.57;;;;;;;1.31;94.95;98827.81;10411527;28;20060;-52
2023/01/04 07:56:46;;;;;;;211.35;122.25;;;;;;;1.44;94.70;98835.31;10414761;28;20075;-52
2023/01/04 08:01:47;;;;;;;202.77;117.50;;;;;;;1.58;94.16;98830.94;10421663;28;20057;-53
2023/01/04 08:06:46;;;;;;;226.27;130.50;;;;;;;1.59;93.86;98835.22;10395803;28;20858;-51
2023/01/04 08:11:45;;;;;;;179.35;100.22;;;;;;;1.38;93.99;98850.34;10391843;28;20488;-53
2023/01/04 08:16:44;;;;;;;;;;;;;;;1.20;93.42;98855.38;10393958;28;20072;-53
2023/01/04 08:21:43;;;;;;;226.93;120.45;;;;;;;1.16;93.73;98847.47;10389576;28;19921;-53
2023/01/04 08:26:43;;;;;;;;;;;;;;;1.40;93.75;98861.53;10410969;28;20824;-54
2023/01/04 08:31:42;;;;;;;152.07;85.27;;;;;;;1.65;93.26;98862.84;10393129;28;19955;-53
2023/01/04 08:36:49;;;;;;;195.48;113.30;;;;;;;1.90;93.06;98862.38;10389371;28;20084;-53
2023/01/04 08:41:51;;;;;;;202.02;115.10;;;;;;;2.21;93.13;98854.59;10394969;28;20091;-53
2023/01/04 08:46:51;;;;;;;211.55;121.13;;;;;;;2.61;93.15;98855.66;10386271;28;20152;-53
2023/01/04 08:51:51;;;;;;;142.05;84.47;;;;;;;3.04;93.11;98845.72;10387932;28;20456;-53
2023/01/04 08:56:50;;;;;;;127.25;80.18;;;;;;;3.58;92.19;98855.84;10412385;28;20067;-56
2023/01/04 09:01:49;;;;;;;129.95;80.60;;;;;;;4.02;91.60;98851.75;10398846;28;20028;-52
2023/01/04 09:06:48;;;;;;;121.40;78.47;;;;;;;4.41;90.00;98838.84;10392232;28;20117;-53
2023/01/04 09:11:47;;;;;;;137.40;83.75;;;;;;;4.79;89.68;98844.63;10392964;28;20664;-53
2023/01/04 09:16:46;;;;;;;131.88;84.78;;;;;;;5.17;87.51;98840.09;10408854;28;20147;-53
2023/01/04 09:21:45;;;;;;;152.38;99.15;;;;;;;5.39;85.54;98826.31;10396027;28;20037;-54
2023/01/04 09:26:46;;;;;;;155.25;105.18;;;;;;;5.79;85.27;98817.44;10384744;28;20132;-54
2023/01/04 09:31:45;;;;;;;135.23;87.22;;;;;;;5.96;83.39;98806.91;10399249;28;20504;-54
2023/01/04 09:36:46;;;;;;;129.45;91.72;;;;;;;5.90;82.99;98811.84;10401834;28;20116;-53
2023/01/04 09:41:48;;;;;;;126.63;89.45;;;;;;;5.79;83.24;98817.44;10404037;28;20052;-53
2023/01/04 09:47:03;;;;;;;121.82;81.35;;;;;;;5.83;83.23;98817.63;10390473;28;20151;-54
2023/01/04 09:52:08;;;;;;;115.57;76.72;;;;;;;5.97;83.91;98811.22;10395450;28;20083;-53
2023/01/04 09:57:19;;;;;;;111.65;74.10;;;;;;;6.24;83.98;98807.84;10398620;28;20064;-53
2023/01/04 10:02:24;;;;;;;110.60;76.45;;;;;;;6.50;84.11;98811.28;10393259;28;20551;-54
2023/01/04 10:07:26;;;;;;;122.50;81.75;;;;;;;6.72;83.04;98807.66;10415099;28;20555;-54
2023/01/04 10:12:31;;;;;;;122.72;83.60;;;;;;;6.79;82.14;98778.63;10386150;28;20522;-54
2023/01/04 10:17:51;;;;;;;112.90;78.82;;;;;;;7.03;81.50;98786.25;10417277;28;20068;-55
2023/01/04 10:23:01;;;;;;;114.65;78.85;;;;;;;7.34;81.13;98789.72;10419387;28;20515;-55
2023/01/04 10:28:19;;;;;;;103.65;66.78;;;;;;;7.33;80.74;98785.38;10441919;28;20078;-53
2023/01/04 10:34:09;;;;;;;114.28;74.32;;;;;;;7.43;80.65;98781.41;10404452;28;20060;-54
2023/01/04 10:39:20;;;;;;;125.20;81.65;;;;;;;7.55;80.56;98784.31;10397005;28;20068;-54
2023/01/04 10:44:22;;;;;;;113.35;82.72;;;;;;;7.57;80.39;98781.75;10410774;28;20078;-54
2023/01/04 10:49:52;;;;;;;99.60;69.90;;;;;;;7.54;80.37;98786.84;10420863;28;20087;-54
2023/01/04 10:54:53;;;;;;;87.93;63.28;;;;;;;7.47;81.00;98790.97;10406780;28;20076;-53
2023/01/04 11:00:06;;;;;;;88.57;63.15;;;;;;;7.47;81.23;98778.06;10422317;28;20139;-54
2023/01/04 11:05:11;;;;;;;98.55;71.97;;;;;;;7.51;81.35;98779.91;10410213;28;20075;-54
2023/01/04 11:10:20;;;;;;;139.13;97.65;;;;;;;7.60;81.72;98781.88;10388431;28;20588;-54
2023/01/04 11:15:19;;;;;;;144.38;103.53;;;;;;;7.59;81.57;98786.16;10386013;28;20075;-52
2023/01/04 11:20:19;;;;;;;139.60;102.93;;;;;;;7.64;81.49;98784.56;10410959;28;20041;-53
2023/01/04 11:25:19;;;;;;;;;;;;;;;7.59;81.19;98769.75;10413530;28;20068;-54
2023/01/04 11:30:22;;;;;;;146.45;99.03;;;;;;;7.58;81.25;98774.06;10412492;28;19958;-54
2023/01/04 11:35:43;;;;;;;122.50;84.55;;;;;;;7.62;81.46;98768.16;10402186;28;20846;-57
2023/01/04 11:41:15;;;;;;;102.43;74.05;;;;;;;7.62;81.05;98768.16;10377706;28;20060;-55
2023/01/04 11:46:17;;;;;;;221.05;137.10;;;;;;;7.55;82.30;98763.66;10408484;28;20506;-55
2023/01/04 11:51:25;;;;;;;62.50;46.90;;;;;;;7.50;82.23;98762.66;10401057;28;20148;-55
2023/01/04 11:56:25;;;;;;;66.05;49.85;;;;;;;7.44;82.18;98765.06;10375361;28;20059;-55
2023/01/04 12:01:24;;;;;;;77.50;56.65;;;;;;;7.47;82.63;98759.09;10386993;28;20119;-54
2023/01/04 12:06:41;;;;;;;98.30;79.15;;;;;;;7.40;82.78;98752.91;10412953;28;20031;-55
2023/01/04 12:11:44;;;;;;;71.30;51.92;;;;;;;7.47;83.62;98754.81;10407369;28;20143;-55
2023/01/04 12:16:46;;;;;;;80.53;60.53;;;;;;;7.62;83.39;98762.13;10391697;28;20128;-55
2023/01/04 12:21:50;;;;;;;72.50;53.60;;;;;;;7.65;82.98;98762.19;10380409;28;20071;-55
2023/01/04 12:26:51;;;;;;;68.88;50.45;;;;;;;7.77;82.97;98769.41;10386477;28;20115;-55
2023/01/04 12:32:03;;;;;;;66.93;49.35;;;;;;;7.85;82.80;98773.06;10370838;28;20159;-55
2023/01/04 12:37:04;;;;;;;67.00;49.25;;;;;;;7.88;82.58;98762.81;10387207;28;20083;-55
2023/01/04 12:42:07;;;;;;;77.97;53.78;;;;;;;7.92;82.38;98767.22;10383608;28;20843;-55
2023/01/04 12:52:47;;;;;;;112.78;77.07;;;;;;;8.00;82.49;98767.41;10396865;28;20460;-55
2023/01/04 12:57:46;;;;;;;104.30;77.75;;;;;;;8.04;82.29;98764.94;10397596;28;20063;-53
2023/01/04 13:02:49;;;;;;;121.68;88.00;;;;;;;8.04;81.96;98754.59;10382053;28;20037;-55
2023/01/04 13:07:54;;;;;;;113.47;83.88;;;;;;;8.16;81.75;98771.25;10395991;28;20929;-55
2023/01/04 13:12:59;;;;;;;116.35;87.80;;;;;;;8.21;82.24;98764.50;10401965;28;20071;-55
2023/01/04 13:17:58;;;;;;;119.38;88.88;;;;;;;8.19;81.81;98769.63;10399174;28;20068;-55
2023/01/04 13:22:58;;;;;;;119.68;88.72;;;;;;;8.11;81.82;98752.16;10396238;28;20507;-55
2023/01/04 13:28:03;;;;;;;124.68;85.53;;;;;;;8.28;81.50;98772.44;10399251;28;20126;-55
2023/01/04 13:33:20;;;;;;;118.20;85.45;;;;;;;8.30;81.73;98775.06;10394212;28;20076;-55
2023/01/04 13:38:19;;;;;;;115.13;87.28;;;;;;;8.28;81.84;98774.16;10400512;28;20060;-55
2023/01/04 13:43:29;;;;;;;122.10;87.97;;;;;;;8.29;81.61;98775.88;10399429;28;20377;-54
2023/01/04 13:48:35;;;;;;;128.15;91.60;;;;;;;8.32;81.66;98781.16;10397171;28;20138;-55
2023/01/04 13:53:33;;;;;;;126.45;95.22;;;;;;;8.33;81.33;98771.66;10387169;28;20642;-55
2023/01/04 13:58:34;;;;;;;124.65;92.70;;;;;;;8.34;81.33;98784.66;10383364;28;20128;-55
2023/01/04 14:03:46;;;;;;;117.95;87.10;;;;;;;8.36;81.42;98788.13;10382843;28;20076;-55
2023/01/04 14:08:57;;;;;;;106.05;71.80;;;;;;;8.38;81.25;98783.88;10384870;28;20076;-55
2023/01/04 14:13:56;;;;;;;111.78;77.60;;;;;;;8.42;81.57;98777.06;10392386;28;20543;-55
2023/01/04 14:18:55;;;;;;;106.45;73.97;;;;;;;8.43;81.27;98776.22;10388126;28;20140;-55
2023/01/04 14:23:54;;;;;;;103.43;69.38;;;;;;;8.46;81.30;98782.34;10396472;28;20094;-54
2023/01/04 14:28:53;;;;;;;90.47;58.83;;;;;;;8.41;81.82;98776.19;10406591;28;20444;-56
2023/01/04 14:33:53;;;;;;;98.50;70.30;;;;;;;8.41;81.33;98789.13;10393634;28;20918;-55
2023/01/04 14:38:57;;;;;;;116.20;78.97;;;;;;;8.38;81.62;98776.09;10397648;28;20143;-55
2023/01/04 14:43:59;;;;;;;109.00;75.45;;;;;;;8.44;81.74;98780.56;10394260;28;20060;-55
2023/01/04 14:48:58;;;;;;;109.55;80.88;;;;;;;8.46;81.54;98779.75;10396186;28;20075;-54
2023/01/04 14:53:57;;;;;;;122.13;88.55;;;;;;;8.40;81.40;98769.25;10397615;28;20115;-56
2023/01/04 14:58:56;;;;;;;126.13;88.53;;;;;;;8.41;81.57;98781.38;10399015;28;20039;-55
2023/01/04 15:03:55;;;;;;;147.55;95.15;;;;;;;8.37;82.10;98784.72;10399242;28;20024;-55
2023/01/04 15:08:54;;;;;;;131.10;87.90;;;;;;;8.28;82.25;98787.06;10388221;28;20503;-55
2023/01/04 15:13:53;;;;;;;105.32;68.05;;;;;;;8.25;82.48;98784.41;10396855;28;20523;-56
2023/01/04 15:18:52;;;;;;;;;;;;;;;8.20;82.78;98793.75;10395151;28;20127;-55
2023/01/04 15:23:51;;;;;;;78.50;52.60;;;;;;;8.21;82.99;98798.97;10407306;28;19924;-54
2023/01/04 15:28:50;;;;;;;85.10;59.17;;;;;;;8.25;83.20;98797.34;10391426;28;20264;-56
2023/01/04 15:33:49;;;;;;;90.85;55.97;;;;;;;8.29;82.93;98797.47;10391375;28;20052;-55
2023/01/04 15:38:48;;;;;;;79.43;52.88;;;;;;;8.26;82.99;98784.44;10393679;28;20067;-55
2023/01/04 15:43:47;;;;;;;74.47;52.55;;;;;;;8.44;82.63;98807.31;10402988;28;20070;-55
2023/01/04 15:48:46;;;;;;;63.63;44.33;;;;;;;8.36;82.96;98793.28;10405436;28;20124;-54
2023/01/04 15:53:44;;;;;;;67.85;45.58;;;;;;;8.40;83.20;98802.88;10390783;28;20040;-55
2023/01/04 15:58:43;;;;;;;76.95;50.70;;;;;;;8.43;82.90;98809.84;10401877;28;20045;-55
2023/01/04 16:03:43;;;;;;;67.90;45.15;;;;;;;8.46;83.39;98809.94;10384459;28;20032;-55
2023/01/04 16:08:42;;;;;;;64.68;44.83;;;;;;;8.44;83.38;98796.94;10397957;28;20069;-55
2023/01/04 16:13:42;;;;;;;62.10;43.08;;;;;;;8.47;83.18;98799.59;10381704;28;20155;-55
2023/01/04 16:18:49;;;;;;;68.18;46.97;;;;;;;8.47;83.26;98791.84;10404018;28;20080;-54
2023/01/04 16:23:49;;;;;;;67.50;45.45;;;;;;;8.40;83.47;98789.09;10404784;28;20067;-55
2023/01/04 16:28:50;;;;;;;66.63;45.97;;;;;;;8.48;83.16;98791.03;10392518;28;20503;-55
2023/01/04 16:33:53;;;;;;;73.03;48.65;;;;;;;8.46;83.08;98792.69;10390144;28;20144;-55
2023/01/04 16:38:52;;;;;;;75.15;52.35;;;;;;;8.45;83.30;98797.81;10388503;28;20067;-55
2023/01/04 16:43:54;;;;;;;81.47;54.03;;;;;;;8.44;83.49;98794.38;10394998;28;20024;-55
2023/01/04 16:49:08;;;;;;;82.15;56.83;;;;;;;8.44;83.43;98796.94;10389994;28;20136;-55
2023/01/04 16:54:10;;;;;;;99.68;67.55;;;;;;;8.44;83.67;98798.69;10389365;28;20113;-55
2023/01/04 16:59:12;;;;;;;93.13;59.10;;;;;;;8.45;83.56;98798.69;10371710;28;20068;-56
2023/01/04 17:04:11;;;;;;;96.03;61.75;;;;;;;8.44;83.54;98799.53;10390117;28;20137;-54
2023/01/04 17:09:18;;;;;;;104.35;69.78;;;;;;;8.40;83.54;98797.72;10389412;28;20112;-55
2023/01/04 17:14:17;;;;;;;129.32;87.38;;;;;;;8.21;84.16;98798.09;10381274;28;20064;-56
2023/01/04 17:19:16;;;;;;;143.00;100.47;;;;;;;8.11;84.61;98807.34;10398427;28;20052;-55
2023/01/04 17:24:16;;;;;;;147.57;98.93;;;;;;;8.01;84.96;98805.34;10406302;28;20441;-55
2023/01/04 17:29:15;;;;;;;;;;;;;;;8.00;85.21;98809.63;10408484;28;20495;-55
2023/01/04 17:34:16;;;;;;;129.50;91.72;;;;;;;8.03;85.34;98809.69;10403785;28;20469;-53
2023/01/04 17:39:15;;;;;;;129.32;92.38;;;;;;;8.07;85.47;98816.72;10379313;28;20068;-56
2023/01/04 17:44:14;;;;;;;157.73;110.95;;;;;;;7.98;85.43;98805.25;10401411;28;20038;-55
2023/01/04 17:49:13;;;;;;;134.95;98.47;;;;;;;8.03;85.48;98817.47;10407640;28;20071;-56
2023/01/04 17:54:12;;;;;;;146.93;96.45;;;;;;;8.02;85.77;98810.56;10382366;28;20507;-54
2023/01/04 17:59:11;;;;;;;;;;;;;;;8.01;85.76;98806.22;10393488;28;20069;-55
2023/01/04 18:04:10;;;;;;;141.35;97.95;;;;;;;8.00;85.44;98804.47;10401165;28;19908;-56
2023/01/04 18:09:09;;;;;;;166.98;118.85;;;;;;;7.98;85.68;98806.13;10414073;28;20472;-54
2023/01/04 18:14:09;;;;;;;182.88;126.60;;;;;;;7.91;86.20;98808.53;10414741;28;20068;-55
2023/01/04 18:19:08;;;;;;;192.18;132.23;;;;;;;7.91;85.89;98804.22;10370668;28;20140;-55
2023/01/04 18:24:07;;;;;;;174.73;123.85;;;;;;;7.92;86.12;98805.09;10370896;28;20021;-55
2023/01/04 18:29:06;;;;;;;176.38;124.20;;;;;;;7.93;86.54;98809.44;10369874;28;20028;-55
2023/01/04 18:34:05;;;;;;;169.55;122.90;;;;;;;7.97;86.49;98799.22;10373103;28;20095;-55
2023/01/04 18:39:04;;;;;;;180.57;129.48;;;;;;;7.99;86.06;98802.72;10371541;28;20037;-53
2023/01/04 18:44:03;;;;;;;182.70;129.38;;;;;;;8.00;86.21;98804.47;10367334;28;20025;-55
2023/01/04 18:49:03;;;;;;;195.25;134.15;;;;;;;7.99;86.23;98797.56;10372172;28;20082;-55
2023/01/04 18:54:02;;;;;;;199.18;138.63;;;;;;;7.89;86.52;98790.38;10371030;28;20081;-54
2023/01/04 18:59:01;;;;;;;187.85;136.98;;;;;;;7.84;86.18;98789.38;10371732;28;20069;-55
2023/01/04 19:04:01;;;;;;;171.15;121.43;;;;;;;7.81;86.57;98789.31;10383537;28;20028;-55
2023/01/04 19:09:00;;;;;;;146.55;103.35;;;;;;;7.82;86.61;98778.13;10369977;28;20080;-55
2023/01/04 19:13:59;;;;;;;208.57;138.88;;;;;;;7.79;86.33;98773.75;10370324;28;20036;-55
2023/01/04 19:18:59;;;;;;;208.02;135.02;;;;;;;7.77;86.57;98764.22;10367506;28;20053;-55
2023/01/04 19:23:58;;;;;;;217.10;132.27;;;;;;;7.77;86.70;98756.47;10375959;28;20072;-55
2023/01/04 19:28:57;;;;;;;143.15;97.97;;;;;;;7.73;86.67;98759.81;10363612;28;20048;-55
2023/01/04 19:33:56;;;;;;;117.68;82.10;;;;;;;7.69;86.68;98760.59;10370266;28;20041;-58
2023/01/04 19:38:55;;;;;;;102.93;69.57;;;;;;;7.59;87.02;98750.00;10367050;28;20049;-54
2023/01/04 19:43:54;;;;;;;105.35;75.28;;;;;;;7.49;86.94;98745.41;10370298;28;20068;-54
2023/01/04 19:48:54;;;;;;;99.72;70.63;;;;;;;7.38;87.38;98745.09;10367309;28;20043;-54
2023/01/04 19:53:53;;;;;;;85.47;61.10;;;;;;;7.36;86.89;98749.34;10364946;28;20503;-54
2023/01/04 19:58:52;;;;;;;94.40;66.88;;;;;;;7.39;87.12;98753.72;10372106;28;20087;-54
2023/01/04 20:03:52;;;;;;;112.18;78.13;;;;;;;7.36;87.20;98748.47;10371537;28;20393;-55
2023/01/04 20:08:50;;;;;;;;;;;;;;;7.35;86.93;98737.25;10367083;28;20507;-53
2023/01/04 20:13:49;;;;;;;88.63;63.72;;;;;;;7.37;87.34;98734.72;10384105;28;20409;-55
2023/01/04 20:18:48;;;;;;;95.95;67.22;;;;;;;7.39;87.85;98725.31;10368755;28;20504;-55
2023/01/04 20:23:47;;;;;;;102.85;74.55;;;;;;;7.41;87.20;98721.09;10365074;28;20482;-54
2023/01/04 20:28:47;;;;;;;97.07;68.90;;;;;;;7.09;87.07;98653.94;10377754;28;20041;-54
2023/01/04 20:33:47;;;;;;;100.32;71.47;;;;;;;7.45;87.50;98715.16;10402836;28;20055;-53
2023/01/04 20:38:48;;;;;;;108.20;73.50;;;;;;;7.50;87.35;98703.25;10436329;28;20043;-55
2023/01/04 20:43:48;;;;;;;107.88;74.05;;;;;;;7.51;86.95;98702.41;10432433;28;20066;-54
2023/01/04 20:48:47;;;;;;;101.78;73.28;;;;;;;7.39;86.73;98700.34;10429754;28;20495;-55
2023/01/04 20:53:46;;;;;;;92.20;65.90;;;;;;;7.37;87.45;98706.31;10424384;28;20555;-55
2023/01/04 20:58:47;;;;;;;90.20;66.25;;;;;;;7.31;87.41;98698.38;10449981;28;20498;-55
2023/01/04 21:03:46;;;;;;;98.00;68.18;;;;;;;7.35;87.97;98697.66;10448552;28;20055;-55
2023/01/04 21:08:45;;;;;;;;;;;;;;;7.36;87.72;98694.25;10450635;28;20075;-54
2023/01/04 21:13:44;;;;;;;76.65;53.63;;;;;;;7.37;87.76;98696.84;10437200;28;20366;-54
2023/01/04 21:18:43;;;;;;;90.68;60.40;;;;;;;7.37;87.93;98685.66;10448703;28;20087;-54
2023/01/04 21:23:43;;;;;;;81.68;56.42;;;;;;;7.28;87.56;98669.91;10442111;28;20123;-55
2023/01/04 21:28:43;;;;;;;87.57;59.78;;;;;;;7.30;87.90;98679.44;10437496;28;20595;-54
2023/01/04 21:33:44;;;;;;;79.97;51.58;;;;;;;7.29;87.65;98679.41;10449629;28;20139;-54
2023/01/04 21:38:46;;;;;;;79.35;53.70;;;;;;;7.25;87.73;98671.56;10433885;28;20079;-55
2023/01/04 21:43:45;;;;;;;79.65;53.15;;;;;;;7.25;87.85;98673.28;10452741;28;20590;-55
2023/01/04 21:48:45;;;;;;;78.82;52.85;;;;;;;7.23;88.46;98664.63;10451697;28;20599;-55
2023/01/04 21:53:44;;;;;;;76.82;53.58;;;;;;;7.24;87.86;98654.34;10440453;28;20127;-54
2023/01/04 21:58:43;;;;;;;82.47;53.83;;;;;;;7.22;87.94;98644.81;10423180;28;20123;-54
2023/01/04 22:03:42;;;;;;;;;;;;;;;7.18;87.84;98642.97;10430926;28;20800;-54
2023/01/04 22:08:42;;;;;;;80.75;53.33;;;;;;;7.11;88.10;98647.09;10435995;28;19919;-54
2023/01/04 22:13:41;;;;;;;97.50;64.40;;;;;;;7.05;88.36;98631.44;10455441;28;20082;-54
2023/01/04 22:18:44;;;;;;;111.55;72.38;;;;;;;6.98;88.67;98632.09;10416543;28;20135;-53
2023/01/04 22:23:44;;;;;;;114.05;75.30;;;;;;;6.94;88.53;98618.25;10438144;28;20116;-55
2023/01/04 22:28:42;;;;;;;;;;;;;;;6.91;89.32;98609.56;10442719;28;20111;-53
2023/01/04 22:33:41;;;;;;;136.07;89.68;;;;;;;6.86;89.54;98599.09;10442378;28;20401;-53
2023/01/04 22:38:41;;;;;;;141.75;94.60;;;;;;;6.73;89.44;98591.88;10420213;28;20060;-54
2023/01/04 22:43:42;;;;;;;149.60;99.72;;;;;;;6.69;89.54;98587.47;10441486;28;20074;-55
2023/01/04 22:48:41;;;;;;;175.85;117.97;;;;;;;6.60;89.53;98577.75;10430117;28;20078;-54
2023/01/04 22:53:40;;;;;;;189.48;121.43;;;;;;;6.46;89.40;98576.50;10435195;28;20041;-53
2023/01/04 22:58:39;;;;;;;145.60;96.97;;;;;;;6.25;90.21;98569.88;10439562;28;20097;-55
2023/01/04 23:03:40;;;;;;;157.55;104.35;;;;;;;6.07;90.89;98548.72;10435975;28;20056;-54
2023/01/04 23:08:40;;;;;;;164.30;106.03;;;;;;;5.97;90.87;98551.03;10426996;28;20060;-54
2023/01/04 23:13:39;;;;;;;172.85;112.90;;;;;;;5.85;90.17;98542.06;10426479;28;20143;-53
2023/01/04 23:18:38;;;;;;;169.88;112.35;;;;;;;5.70;90.67;98535.63;10429972;28;20080;-54
2023/01/04 23:23:38;;;;;;;188.93;117.78;;;;;;;5.64;91.11;98534.56;10417040;28;20459;-53
2023/01/04 23:28:37;;;;;;;166.68;109.80;;;;;;;5.61;91.70;98537.91;10429232;28;20067;-53
2023/01/04 23:33:36;;;;;;;180.32;116.68;;;;;;;5.57;91.86;98532.63;10429709;28;20079;-54
2023/01/04 23:38:35;;;;;;;163.93;110.05;;;;;;;5.50;92.08;98527.28;10432209;28;20064;-54
2023/01/04 23:43:35;;;;;;;;;;;;;;;5.47;92.17;98526.31;10445466;28;20505;-53
2023/01/04 23:48:34;;;;;;;172.02;110.13;;;;;;;5.42;91.93;98518.44;10437524;28;20587;-54
2023/01/04 23:53:33;;;;;;;175.05;109.88;;;;;;;5.35;92.33;98506.22;10436292;28;21890;-54